sensor_id;sensor_type;location;lat;lon;timestamp;P1;durP1;ratioP1;P2;durP2;ratioP2
10517;SDS011;5307;42.548;22.968;2023-04-01T00:01:58;7.85;;;2.78;;
10517;SDS011;5307;42.548;22.968;2023-04-01T00:04:25;6.68;;;2.70;;
10517;SDS011;5307;42.548;22.968;2023-04-01T00:06:52;6.38;;;2.95;;
10517;SDS011;5307;42.548;22.968;2023-04-01T00:09:19;6.57;;;2.50;;
10517;SDS011;5307;42.548;22.968;2023-04-01T00:11:45;6.03;;;2.30;;
10517;SDS011;5307;42.548;22.968;2023-04-01T00:14:14;11.90;;;2.78;;
10517;SDS011;5307;42.548;22.968;2023-04-01T00:16:40;11.07;;;2.70;;
10517;SDS011;5307;42.548;22.968;2023-04-01T00:19:07;11.73;;;2.72;;
10517;SDS011;5307;42.548;22.968;2023-04-01T00:21:34;9.65;;;2.30;;
10517;SDS011;5307;42.548;22.968;2023-04-01T00:24:02;8.02;;;2.83;;
10517;SDS011;5307;42.548;22.968;2023-04-01T00:26:28;5.65;;;2.35;;
10517;SDS011;5307;42.548;22.968;2023-04-01T00:28:55;4.80;;;1.80;;
10517;SDS011;5307;42.548;22.968;2023-04-01T00:31:23;6.93;;;2.13;;
10517;SDS011;5307;42.548;22.968;2023-04-01T00:33:50;5.53;;;1.90;;
10517;SDS011;5307;42.548;22.968;2023-04-01T00:36:18;10.25;;;3.58;;
10517;SDS011;5307;42.548;22.968;2023-04-01T00:38:47;21.75;;;6.90;;
10517;SDS011;5307;42.548;22.968;2023-04-01T00:41:14;9.70;;;3.75;;
10517;SDS011;5307;42.548;22.968;2023-04-01T00:43:42;5.30;;;2.33;;
10517;SDS011;5307;42.548;22.968;2023-04-01T00:46:10;7.05;;;2.80;;
10517;SDS011;5307;42.548;22.968;2023-04-01T00:48:39;6.20;;;3.00;;
10517;SDS011;5307;42.548;22.968;2023-04-01T00:51:10;6.20;;;2.30;;
10517;SDS011;5307;42.548;22.968;2023-04-01T00:53:41;5.38;;;1.95;;
10517;SDS011;5307;42.548;22.968;2023-04-01T00:56:10;6.30;;;2.88;;
10517;SDS011;5307;42.548;22.968;2023-04-01T00:58:41;11.63;;;2.35;;
10517;SDS011;5307;42.548;22.968;2023-04-01T01:01:12;7.03;;;2.50;;
10517;SDS011;5307;42.548;22.968;2023-04-01T01:03:40;7.97;;;2.40;;
10517;SDS011;5307;42.548;22.968;2023-04-01T01:06:08;6.68;;;2.60;;
10517;SDS011;5307;42.548;22.968;2023-04-01T01:08:51;3.47;;;1.90;;
10517;SDS011;5307;42.548;22.968;2023-04-01T01:11:30;10.20;;;2.33;;
10517;SDS011;5307;42.548;22.968;2023-04-01T01:14:02;6.35;;;2.28;;
10517;SDS011;5307;42.548;22.968;2023-04-01T01:16:39;7.30;;;2.28;;
10517;SDS011;5307;42.548;22.968;2023-04-01T01:19:15;5.32;;;2.00;;
10517;SDS011;5307;42.548;22.968;2023-04-01T01:22:01;6.25;;;2.50;;
10517;SDS011;5307;42.548;22.968;2023-04-01T01:24:55;4.82;;;2.53;;
10517;SDS011;5307;42.548;22.968;2023-04-01T01:27:38;7.47;;;2.40;;
10517;SDS011;5307;42.548;22.968;2023-04-01T01:30:15;26.75;;;2.83;;
10517;SDS011;5307;42.548;22.968;2023-04-01T01:33:05;7.30;;;2.80;;
10517;SDS011;5307;42.548;22.968;2023-04-01T01:35:40;7.32;;;2.03;;
10517;SDS011;5307;42.548;22.968;2023-04-01T01:38:13;6.45;;;2.53;;
10517;SDS011;5307;42.548;22.968;2023-04-01T01:40:42;4.97;;;2.20;;
10517;SDS011;5307;42.548;22.968;2023-04-01T01:43:12;7.63;;;2.47;;
10517;SDS011;5307;42.548;22.968;2023-04-01T01:45:43;6.53;;;2.20;;
10517;SDS011;5307;42.548;22.968;2023-04-01T01:48:12;8.32;;;2.13;;
10517;SDS011;5307;42.548;22.968;2023-04-01T01:50:42;9.10;;;2.38;;
10517;SDS011;5307;42.548;22.968;2023-04-01T01:53:11;7.40;;;2.08;;
10517;SDS011;5307;42.548;22.968;2023-04-01T01:55:40;9.63;;;2.15;;
10517;SDS011;5307;42.548;22.968;2023-04-01T01:58:09;7.95;;;1.90;;
10517;SDS011;5307;42.548;22.968;2023-04-01T02:00:40;5.07;;;2.22;;
10517;SDS011;5307;42.548;22.968;2023-04-01T02:03:09;9.85;;;2.63;;
10517;SDS011;5307;42.548;22.968;2023-04-01T02:05:39;5.78;;;2.17;;
10517;SDS011;5307;42.548;22.968;2023-04-01T02:08:07;6.28;;;2.17;;
10517;SDS011;5307;42.548;22.968;2023-04-01T02:10:39;6.07;;;2.17;;
10517;SDS011;5307;42.548;22.968;2023-04-01T02:13:11;10.70;;;2.30;;
10517;SDS011;5307;42.548;22.968;2023-04-01T02:15:44;6.47;;;2.17;;
10517;SDS011;5307;42.548;22.968;2023-04-01T02:18:14;7.32;;;2.17;;
10517;SDS011;5307;42.548;22.968;2023-04-01T02:20:42;6.68;;;1.90;;
10517;SDS011;5307;42.548;22.968;2023-04-01T02:23:12;6.13;;;1.85;;
10517;SDS011;5307;42.548;22.968;2023-04-01T02:25:39;5.60;;;2.13;;
10517;SDS011;5307;42.548;22.968;2023-04-01T02:28:09;9.40;;;3.40;;
10517;SDS011;5307;42.548;22.968;2023-04-01T02:30:39;5.25;;;2.25;;
10517;SDS011;5307;42.548;22.968;2023-04-01T02:33:09;5.53;;;2.13;;
10517;SDS011;5307;42.548;22.968;2023-04-01T02:35:36;8.48;;;2.08;;
10517;SDS011;5307;42.548;22.968;2023-04-01T02:38:03;7.97;;;2.20;;
10517;SDS011;5307;42.548;22.968;2023-04-01T02:40:41;7.10;;;2.40;;
10517;SDS011;5307;42.548;22.968;2023-04-01T02:43:10;5.20;;;2.35;;
10517;SDS011;5307;42.548;22.968;2023-04-01T02:45:36;5.78;;;2.47;;
10517;SDS011;5307;42.548;22.968;2023-04-01T02:48:04;6.82;;;2.63;;
10517;SDS011;5307;42.548;22.968;2023-04-01T02:50:31;7.32;;;2.38;;
10517;SDS011;5307;42.548;22.968;2023-04-01T02:52:57;7.00;;;2.60;;
10517;SDS011;5307;42.548;22.968;2023-04-01T02:55:24;7.82;;;2.42;;
10517;SDS011;5307;42.548;22.968;2023-04-01T02:57:53;13.35;;;2.85;;
10517;SDS011;5307;42.548;22.968;2023-04-01T03:00:19;5.85;;;2.55;;
10517;SDS011;5307;42.548;22.968;2023-04-01T03:02:46;9.82;;;2.40;;
10517;SDS011;5307;42.548;22.968;2023-04-01T03:05:15;7.00;;;2.88;;
10517;SDS011;5307;42.548;22.968;2023-04-01T03:07:43;3.58;;;2.40;;
10517;SDS011;5307;42.548;22.968;2023-04-01T03:10:10;12.15;;;2.78;;
10517;SDS011;5307;42.548;22.968;2023-04-01T03:12:37;11.13;;;2.70;;
10517;SDS011;5307;42.548;22.968;2023-04-01T03:15:05;6.43;;;2.90;;
10517;SDS011;5307;42.548;22.968;2023-04-01T03:17:33;8.18;;;2.75;;
10517;SDS011;5307;42.548;22.968;2023-04-01T03:20:01;10.18;;;2.70;;
10517;SDS011;5307;42.548;22.968;2023-04-01T03:22:30;6.15;;;1.90;;
10517;SDS011;5307;42.548;22.968;2023-04-01T03:24:56;10.00;;;2.30;;
10517;SDS011;5307;42.548;22.968;2023-04-01T03:27:23;5.65;;;2.30;;
10517;SDS011;5307;42.548;22.968;2023-04-01T03:29:50;6.18;;;2.03;;
10517;SDS011;5307;42.548;22.968;2023-04-01T03:32:18;9.82;;;2.50;;
10517;SDS011;5307;42.548;22.968;2023-04-01T03:34:45;11.27;;;2.67;;
10517;SDS011;5307;42.548;22.968;2023-04-01T03:37:12;5.13;;;2.33;;
10517;SDS011;5307;42.548;22.968;2023-04-01T03:39:39;6.97;;;2.47;;
10517;SDS011;5307;42.548;22.968;2023-04-01T03:42:05;5.13;;;2.30;;
10517;SDS011;5307;42.548;22.968;2023-04-01T03:44:32;7.28;;;2.10;;
10517;SDS011;5307;42.548;22.968;2023-04-01T03:46:59;11.98;;;2.38;;
10517;SDS011;5307;42.548;22.968;2023-04-01T03:49:28;10.32;;;2.40;;
10517;SDS011;5307;42.548;22.968;2023-04-01T03:51:57;5.78;;;2.25;;
10517;SDS011;5307;42.548;22.968;2023-04-01T03:54:24;9.48;;;3.03;;
10517;SDS011;5307;42.548;22.968;2023-04-01T03:56:51;10.75;;;2.33;;
10517;SDS011;5307;42.548;22.968;2023-04-01T03:59:18;5.82;;;2.33;;
10517;SDS011;5307;42.548;22.968;2023-04-01T04:01:45;9.30;;;2.88;;
10517;SDS011;5307;42.548;22.968;2023-04-01T04:04:12;5.22;;;2.17;;
10517;SDS011;5307;42.548;22.968;2023-04-01T04:06:41;13.02;;;4.00;;
10517;SDS011;5307;42.548;22.968;2023-04-01T04:09:07;8.30;;;2.88;;
10517;SDS011;5307;42.548;22.968;2023-04-01T04:11:34;12.07;;;3.35;;
10517;SDS011;5307;42.548;22.968;2023-04-01T04:14:01;10.75;;;3.25;;
10517;SDS011;5307;42.548;22.968;2023-04-01T04:16:28;11.48;;;3.80;;
10517;SDS011;5307;42.548;22.968;2023-04-01T04:18:55;19.25;;;3.80;;
10517;SDS011;5307;42.548;22.968;2023-04-01T04:21:22;14.32;;;4.78;;
10517;SDS011;5307;42.548;22.968;2023-04-01T04:23:50;14.50;;;5.13;;
10517;SDS011;5307;42.548;22.968;2023-04-01T04:26:17;18.83;;;3.72;;
10517;SDS011;5307;42.548;22.968;2023-04-01T04:28:44;14.45;;;2.75;;
10517;SDS011;5307;42.548;22.968;2023-04-01T04:31:11;8.52;;;2.58;;
10517;SDS011;5307;42.548;22.968;2023-04-01T04:33:40;9.20;;;2.70;;
10517;SDS011;5307;42.548;22.968;2023-04-01T04:36:07;15.85;;;4.35;;
10517;SDS011;5307;42.548;22.968;2023-04-01T04:38:34;22.15;;;6.30;;
10517;SDS011;5307;42.548;22.968;2023-04-01T04:41:02;15.98;;;5.95;;
10517;SDS011;5307;42.548;22.968;2023-04-01T04:43:29;18.58;;;6.45;;
10517;SDS011;5307;42.548;22.968;2023-04-01T04:45:56;9.32;;;3.75;;
10517;SDS011;5307;42.548;22.968;2023-04-01T04:48:23;11.50;;;2.85;;
10517;SDS011;5307;42.548;22.968;2023-04-01T04:50:50;10.27;;;2.78;;
10517;SDS011;5307;42.548;22.968;2023-04-01T04:53:18;11.55;;;4.38;;
10517;SDS011;5307;42.548;22.968;2023-04-01T04:55:45;18.75;;;4.80;;
10517;SDS011;5307;42.548;22.968;2023-04-01T04:58:14;8.75;;;3.70;;
10517;SDS011;5307;42.548;22.968;2023-04-01T05:00:42;10.00;;;3.67;;
10517;SDS011;5307;42.548;22.968;2023-04-01T05:03:09;14.98;;;3.20;;
10517;SDS011;5307;42.548;22.968;2023-04-01T05:05:36;12.93;;;3.10;;
10517;SDS011;5307;42.548;22.968;2023-04-01T05:08:03;12.73;;;3.50;;
10517;SDS011;5307;42.548;22.968;2023-04-01T05:10:30;10.88;;;3.75;;
10517;SDS011;5307;42.548;22.968;2023-04-01T05:12:57;10.30;;;3.72;;
10517;SDS011;5307;42.548;22.968;2023-04-01T05:15:25;7.55;;;2.63;;
10517;SDS011;5307;42.548;22.968;2023-04-01T05:17:52;10.65;;;2.75;;
10517;SDS011;5307;42.548;22.968;2023-04-01T05:20:19;9.05;;;2.83;;
10517;SDS011;5307;42.548;22.968;2023-04-01T05:22:46;5.85;;;2.60;;
10517;SDS011;5307;42.548;22.968;2023-04-01T05:25:12;8.98;;;3.65;;
10517;SDS011;5307;42.548;22.968;2023-04-01T05:27:39;10.80;;;3.22;;
10517;SDS011;5307;42.548;22.968;2023-04-01T05:30:06;12.95;;;6.05;;
10517;SDS011;5307;42.548;22.968;2023-04-01T05:32:35;26.92;;;13.90;;
10517;SDS011;5307;42.548;22.968;2023-04-01T05:35:02;8.38;;;5.05;;
10517;SDS011;5307;42.548;22.968;2023-04-01T05:37:29;10.00;;;3.70;;
10517;SDS011;5307;42.548;22.968;2023-04-01T05:39:56;7.65;;;3.38;;
10517;SDS011;5307;42.548;22.968;2023-04-01T05:42:23;4.50;;;2.70;;
10517;SDS011;5307;42.548;22.968;2023-04-01T05:44:50;9.00;;;2.78;;
10517;SDS011;5307;42.548;22.968;2023-04-01T05:47:17;7.10;;;2.83;;
10517;SDS011;5307;42.548;22.968;2023-04-01T05:49:45;6.55;;;3.03;;
10517;SDS011;5307;42.548;22.968;2023-04-01T05:52:12;5.55;;;3.10;;
10517;SDS011;5307;42.548;22.968;2023-04-01T05:54:39;10.40;;;3.95;;
10517;SDS011;5307;42.548;22.968;2023-04-01T05:57:06;7.43;;;3.00;;
10517;SDS011;5307;42.548;22.968;2023-04-01T05:59:33;9.05;;;3.30;;
10517;SDS011;5307;42.548;22.968;2023-04-01T06:02:00;8.32;;;3.45;;
10517;SDS011;5307;42.548;22.968;2023-04-01T06:04:27;6.85;;;2.92;;
10517;SDS011;5307;42.548;22.968;2023-04-01T06:07:00;9.73;;;2.92;;
10517;SDS011;5307;42.548;22.968;2023-04-01T06:09:28;12.60;;;3.17;;
10517;SDS011;5307;42.548;22.968;2023-04-01T06:12:01;4.80;;;2.42;;
10517;SDS011;5307;42.548;22.968;2023-04-01T06:14:49;9.82;;;3.03;;
10517;SDS011;5307;42.548;22.968;2023-04-01T06:17:26;13.40;;;4.05;;
10517;SDS011;5307;42.548;22.968;2023-04-01T06:20:00;13.68;;;4.28;;
10517;SDS011;5307;42.548;22.968;2023-04-01T06:25:34;8.48;;;3.33;;
10517;SDS011;5307;42.548;22.968;2023-04-01T06:28:28;5.68;;;2.50;;
10517;SDS011;5307;42.548;22.968;2023-04-01T06:31:05;5.53;;;2.90;;
10517;SDS011;5307;42.548;22.968;2023-04-01T06:33:48;9.75;;;4.20;;
10517;SDS011;5307;42.548;22.968;2023-04-01T06:36:39;9.68;;;4.35;;
10517;SDS011;5307;42.548;22.968;2023-04-01T06:39:25;10.27;;;4.78;;
10517;SDS011;5307;42.548;22.968;2023-04-01T06:42:10;8.25;;;2.97;;
10517;SDS011;5307;42.548;22.968;2023-04-01T06:44:48;9.77;;;4.80;;
10517;SDS011;5307;42.548;22.968;2023-04-01T06:47:31;14.90;;;4.60;;
10517;SDS011;5307;42.548;22.968;2023-04-01T06:50:08;8.32;;;3.55;;
10517;SDS011;5307;42.548;22.968;2023-04-01T06:52:46;8.88;;;4.32;;
10517;SDS011;5307;42.548;22.968;2023-04-01T06:55:26;19.70;;;4.53;;
10517;SDS011;5307;42.548;22.968;2023-04-01T06:58:00;17.00;;;3.28;;
10517;SDS011;5307;42.548;22.968;2023-04-01T07:00:32;11.02;;;3.40;;
10517;SDS011;5307;42.548;22.968;2023-04-01T07:03:09;14.98;;;5.35;;
10517;SDS011;5307;42.548;22.968;2023-04-01T07:05:43;13.73;;;4.55;;
10517;SDS011;5307;42.548;22.968;2023-04-01T07:08:11;14.25;;;4.40;;
10517;SDS011;5307;42.548;22.968;2023-04-01T07:10:46;17.42;;;6.40;;
10517;SDS011;5307;42.548;22.968;2023-04-01T07:13:18;10.90;;;3.70;;
10517;SDS011;5307;42.548;22.968;2023-04-01T07:15:54;13.27;;;3.95;;
10517;SDS011;5307;42.548;22.968;2023-04-01T07:18:29;8.88;;;4.10;;
10517;SDS011;5307;42.548;22.968;2023-04-01T07:21:01;8.30;;;3.03;;
10517;SDS011;5307;42.548;22.968;2023-04-01T07:23:29;8.40;;;3.45;;
10517;SDS011;5307;42.548;22.968;2023-04-01T07:26:06;5.50;;;3.03;;
10517;SDS011;5307;42.548;22.968;2023-04-01T07:28:41;6.88;;;3.42;;
10517;SDS011;5307;42.548;22.968;2023-04-01T07:31:12;19.77;;;6.18;;
10517;SDS011;5307;42.548;22.968;2023-04-01T07:33:46;13.70;;;4.40;;
10517;SDS011;5307;42.548;22.968;2023-04-01T07:36:23;8.38;;;3.80;;
10517;SDS011;5307;42.548;22.968;2023-04-01T07:38:57;13.65;;;5.20;;
10517;SDS011;5307;42.548;22.968;2023-04-01T07:41:35;10.10;;;5.35;;
10517;SDS011;5307;42.548;22.968;2023-04-01T07:44:14;11.35;;;4.88;;
10517;SDS011;5307;42.548;22.968;2023-04-01T07:46:53;18.52;;;5.88;;
10517;SDS011;5307;42.548;22.968;2023-04-01T07:49:30;17.83;;;5.75;;
10517;SDS011;5307;42.548;22.968;2023-04-01T07:52:09;15.00;;;5.57;;
10517;SDS011;5307;42.548;22.968;2023-04-01T07:54:43;14.63;;;5.55;;
10517;SDS011;5307;42.548;22.968;2023-04-01T07:57:17;15.07;;;5.85;;
10517;SDS011;5307;42.548;22.968;2023-04-01T07:59:50;13.43;;;5.30;;
10517;SDS011;5307;42.548;22.968;2023-04-01T08:02:26;16.85;;;4.32;;
10517;SDS011;5307;42.548;22.968;2023-04-01T08:05:03;15.00;;;3.90;;
10517;SDS011;5307;42.548;22.968;2023-04-01T08:07:36;14.50;;;5.13;;
10517;SDS011;5307;42.548;22.968;2023-04-01T08:10:11;16.45;;;3.97;;
10517;SDS011;5307;42.548;22.968;2023-04-01T08:12:51;18.95;;;4.85;;
10517;SDS011;5307;42.548;22.968;2023-04-01T08:15:27;15.05;;;5.05;;
10517;SDS011;5307;42.548;22.968;2023-04-01T08:18:03;14.73;;;4.70;;
10517;SDS011;5307;42.548;22.968;2023-04-01T08:20:39;10.60;;;4.65;;
10517;SDS011;5307;42.548;22.968;2023-04-01T08:23:12;13.90;;;4.80;;
10517;SDS011;5307;42.548;22.968;2023-04-01T08:25:43;11.40;;;4.88;;
10517;SDS011;5307;42.548;22.968;2023-04-01T08:28:19;15.13;;;4.93;;
10517;SDS011;5307;42.548;22.968;2023-04-01T08:30:51;18.00;;;4.97;;
10517;SDS011;5307;42.548;22.968;2023-04-01T08:33:23;12.60;;;4.38;;
10517;SDS011;5307;42.548;22.968;2023-04-01T08:35:55;17.63;;;6.88;;
10517;SDS011;5307;42.548;22.968;2023-04-01T08:38:26;13.68;;;5.20;;
10517;SDS011;5307;42.548;22.968;2023-04-01T08:40:59;17.05;;;5.65;;
10517;SDS011;5307;42.548;22.968;2023-04-01T08:46:45;12.82;;;5.28;;
10517;SDS011;5307;42.548;22.968;2023-04-01T08:49:27;9.02;;;4.47;;
10517;SDS011;5307;42.548;22.968;2023-04-01T08:52:10;13.07;;;4.43;;
10517;SDS011;5307;42.548;22.968;2023-04-01T08:55:18;13.45;;;5.93;;
10517;SDS011;5307;42.548;22.968;2023-04-01T08:57:57;15.23;;;4.00;;
10517;SDS011;5307;42.548;22.968;2023-04-01T09:00:49;7.18;;;3.42;;
10517;SDS011;5307;42.548;22.968;2023-04-01T09:03:26;11.95;;;3.45;;
10517;SDS011;5307;42.548;22.968;2023-04-01T09:12:19;13.23;;;4.10;;
10517;SDS011;5307;42.548;22.968;2023-04-01T09:18:13;11.18;;;3.83;;
10517;SDS011;5307;42.548;22.968;2023-04-01T09:23:59;12.52;;;3.53;;
10517;SDS011;5307;42.548;22.968;2023-04-01T09:26:44;5.93;;;2.92;;
10517;SDS011;5307;42.548;22.968;2023-04-01T09:29:44;18.05;;;7.05;;
10517;SDS011;5307;42.548;22.968;2023-04-01T09:32:34;12.68;;;3.72;;
10517;SDS011;5307;42.548;22.968;2023-04-01T09:35:24;12.05;;;5.55;;
10517;SDS011;5307;42.548;22.968;2023-04-01T09:38:08;14.18;;;4.78;;
10517;SDS011;5307;42.548;22.968;2023-04-01T09:40:47;14.32;;;4.70;;
10517;SDS011;5307;42.548;22.968;2023-04-01T09:43:26;14.38;;;4.05;;
10517;SDS011;5307;42.548;22.968;2023-04-01T09:46:00;13.70;;;4.38;;
10517;SDS011;5307;42.548;22.968;2023-04-01T09:48:42;7.35;;;3.28;;
10517;SDS011;5307;42.548;22.968;2023-04-01T09:51:27;11.95;;;4.03;;
10517;SDS011;5307;42.548;22.968;2023-04-01T09:54:06;11.23;;;2.95;;
10517;SDS011;5307;42.548;22.968;2023-04-01T09:56:58;13.00;;;3.28;;
10517;SDS011;5307;42.548;22.968;2023-04-01T09:59:56;11.50;;;3.40;;
10517;SDS011;5307;42.548;22.968;2023-04-01T10:08:56;13.60;;;5.03;;
10517;SDS011;5307;42.548;22.968;2023-04-01T10:12:07;13.43;;;4.20;;
10517;SDS011;5307;42.548;22.968;2023-04-01T10:15:04;7.85;;;4.18;;
10517;SDS011;5307;42.548;22.968;2023-04-01T10:18:08;14.90;;;4.38;;
10517;SDS011;5307;42.548;22.968;2023-04-01T10:27:33;12.40;;;2.95;;
10517;SDS011;5307;42.548;22.968;2023-04-01T10:30:23;9.02;;;4.10;;
10517;SDS011;5307;42.548;22.968;2023-04-01T10:33:23;11.48;;;3.40;;
10517;SDS011;5307;42.548;22.968;2023-04-01T10:39:07;12.65;;;3.35;;
10517;SDS011;5307;42.548;22.968;2023-04-01T10:41:55;15.88;;;3.08;;
10517;SDS011;5307;42.548;22.968;2023-04-01T10:55:48;9.88;;;2.97;;
10517;SDS011;5307;42.548;22.968;2023-04-01T11:01:58;10.85;;;3.53;;
10517;SDS011;5307;42.548;22.968;2023-04-01T11:07:54;13.85;;;2.88;;
10517;SDS011;5307;42.548;22.968;2023-04-01T11:11:01;11.68;;;2.72;;
10517;SDS011;5307;42.548;22.968;2023-04-01T11:14:23;12.68;;;4.07;;
10517;SDS011;5307;42.548;22.968;2023-04-01T11:17:16;7.20;;;3.58;;
10517;SDS011;5307;42.548;22.968;2023-04-01T11:20:18;9.07;;;2.35;;
10517;SDS011;5307;42.548;22.968;2023-04-01T11:23:14;14.10;;;3.40;;
10517;SDS011;5307;42.548;22.968;2023-04-01T11:25:56;11.38;;;3.25;;
10517;SDS011;5307;42.548;22.968;2023-04-01T11:28:47;9.15;;;3.95;;
10517;SDS011;5307;42.548;22.968;2023-04-01T11:31:35;8.63;;;4.30;;
10517;SDS011;5307;42.548;22.968;2023-04-01T11:34:14;9.32;;;3.60;;
10517;SDS011;5307;42.548;22.968;2023-04-01T11:36:56;12.35;;;4.63;;
10517;SDS011;5307;42.548;22.968;2023-04-01T11:39:33;8.88;;;3.13;;
10517;SDS011;5307;42.548;22.968;2023-04-01T11:42:14;8.80;;;4.38;;
10517;SDS011;5307;42.548;22.968;2023-04-01T11:44:55;8.93;;;3.95;;
10517;SDS011;5307;42.548;22.968;2023-04-01T11:50:33;7.57;;;3.65;;
10517;SDS011;5307;42.548;22.968;2023-04-01T11:53:13;7.07;;;3.42;;
10517;SDS011;5307;42.548;22.968;2023-04-01T11:55:53;9.45;;;4.85;;
10517;SDS011;5307;42.548;22.968;2023-04-01T11:58:31;10.70;;;3.80;;
10517;SDS011;5307;42.548;22.968;2023-04-01T12:01:25;6.32;;;3.20;;
10517;SDS011;5307;42.548;22.968;2023-04-01T12:06:57;7.00;;;3.80;;
10517;SDS011;5307;42.548;22.968;2023-04-01T12:09:31;9.90;;;3.80;;
10517;SDS011;5307;42.548;22.968;2023-04-01T12:12:07;9.93;;;5.63;;
10517;SDS011;5307;42.548;22.968;2023-04-01T12:14:41;10.52;;;5.93;;
10517;SDS011;5307;42.548;22.968;2023-04-01T12:17:18;11.65;;;5.32;;
10517;SDS011;5307;42.548;22.968;2023-04-01T12:19:55;7.90;;;4.88;;
10517;SDS011;5307;42.548;22.968;2023-04-01T12:22:36;7.35;;;3.47;;
10517;SDS011;5307;42.548;22.968;2023-04-01T12:25:33;9.10;;;3.80;;
10517;SDS011;5307;42.548;22.968;2023-04-01T12:28:22;4.00;;;1.90;;
10517;SDS011;5307;42.548;22.968;2023-04-01T12:31:02;6.32;;;2.88;;
10517;SDS011;5307;42.548;22.968;2023-04-01T12:33:52;7.03;;;2.95;;
10517;SDS011;5307;42.548;22.968;2023-04-01T12:36:39;4.90;;;1.80;;
10517;SDS011;5307;42.548;22.968;2023-04-01T12:39:29;5.90;;;2.60;;
10517;SDS011;5307;42.548;22.968;2023-04-01T12:42:07;6.70;;;2.28;;
10517;SDS011;5307;42.548;22.968;2023-04-01T12:44:56;3.13;;;1.35;;
10517;SDS011;5307;42.548;22.968;2023-04-01T12:50:56;4.72;;;2.40;;
10517;SDS011;5307;42.548;22.968;2023-04-01T12:53:43;8.95;;;4.28;;
10517;SDS011;5307;42.548;22.968;2023-04-01T12:56:27;6.20;;;3.38;;
10517;SDS011;5307;42.548;22.968;2023-04-01T13:02:20;5.35;;;2.20;;
10517;SDS011;5307;42.548;22.968;2023-04-01T13:05:19;5.60;;;3.00;;
10517;SDS011;5307;42.548;22.968;2023-04-01T13:08:01;5.75;;;3.10;;
10517;SDS011;5307;42.548;22.968;2023-04-01T13:10:51;3.22;;;2.60;;
10517;SDS011;5307;42.548;22.968;2023-04-01T13:13:45;2.75;;;2.03;;
10517;SDS011;5307;42.548;22.968;2023-04-01T13:16:24;6.75;;;1.90;;
10517;SDS011;5307;42.548;22.968;2023-04-01T13:18:56;2.90;;;2.60;;
10517;SDS011;5307;42.548;22.968;2023-04-01T13:21:31;3.38;;;2.60;;
10517;SDS011;5307;42.548;22.968;2023-04-01T13:24:09;7.75;;;4.35;;
10517;SDS011;5307;42.548;22.968;2023-04-01T13:26:50;6.32;;;3.38;;
10517;SDS011;5307;42.548;22.968;2023-04-01T13:29:25;11.75;;;5.30;;
10517;SDS011;5307;42.548;22.968;2023-04-01T13:32:01;3.05;;;2.00;;
10517;SDS011;5307;42.548;22.968;2023-04-01T13:34:44;3.03;;;1.80;;
10517;SDS011;5307;42.548;22.968;2023-04-01T13:37:35;4.97;;;2.28;;
10517;SDS011;5307;42.548;22.968;2023-04-01T13:40:17;5.93;;;3.47;;
10517;SDS011;5307;42.548;22.968;2023-04-01T13:42:53;8.02;;;4.20;;
10517;SDS011;5307;42.548;22.968;2023-04-01T13:45:26;8.80;;;4.05;;
10517;SDS011;5307;42.548;22.968;2023-04-01T13:48:10;3.47;;;2.72;;
10517;SDS011;5307;42.548;22.968;2023-04-01T13:56:50;6.93;;;4.43;;
10517;SDS011;5307;42.548;22.968;2023-04-01T13:59:40;10.95;;;6.53;;
10517;SDS011;5307;42.548;22.968;2023-04-01T14:02:31;11.80;;;6.30;;
10517;SDS011;5307;42.548;22.968;2023-04-01T14:05:25;8.35;;;4.35;;
10517;SDS011;5307;42.548;22.968;2023-04-01T14:08:05;8.00;;;3.65;;
10517;SDS011;5307;42.548;22.968;2023-04-01T14:10:44;9.93;;;4.45;;
10517;SDS011;5307;42.548;22.968;2023-04-01T14:13:21;9.73;;;5.32;;
10517;SDS011;5307;42.548;22.968;2023-04-01T14:15:57;12.38;;;5.07;;
10517;SDS011;5307;42.548;22.968;2023-04-01T14:18:52;8.80;;;3.55;;
10517;SDS011;5307;42.548;22.968;2023-04-01T14:21:33;12.68;;;6.90;;
10517;SDS011;5307;42.548;22.968;2023-04-01T14:27:21;7.15;;;3.85;;
10517;SDS011;5307;42.548;22.968;2023-04-01T14:30:00;5.43;;;2.65;;
10517;SDS011;5307;42.548;22.968;2023-04-01T14:32:46;6.47;;;2.78;;
10517;SDS011;5307;42.548;22.968;2023-04-01T14:35:24;7.50;;;3.58;;
10517;SDS011;5307;42.548;22.968;2023-04-01T14:41:00;5.05;;;3.22;;
10517;SDS011;5307;42.548;22.968;2023-04-01T14:43:47;6.32;;;3.10;;
10517;SDS011;5307;42.548;22.968;2023-04-01T14:46:41;5.47;;;2.85;;
10517;SDS011;5307;42.548;22.968;2023-04-01T14:49:34;13.27;;;5.53;;
10517;SDS011;5307;42.548;22.968;2023-04-01T14:52:06;16.70;;;9.68;;
10517;SDS011;5307;42.548;22.968;2023-04-01T14:54:41;12.40;;;6.70;;
10517;SDS011;5307;42.548;22.968;2023-04-01T14:57:11;12.57;;;6.85;;
10517;SDS011;5307;42.548;22.968;2023-04-01T14:59:39;6.75;;;3.25;;
10517;SDS011;5307;42.548;22.968;2023-04-01T15:02:11;9.35;;;5.32;;
10517;SDS011;5307;42.548;22.968;2023-04-01T15:04:56;7.35;;;3.60;;
10517;SDS011;5307;42.548;22.968;2023-04-01T15:16:49;9.05;;;5.28;;
10517;SDS011;5307;42.548;22.968;2023-04-01T15:19:29;16.77;;;5.30;;
10517;SDS011;5307;42.548;22.968;2023-04-01T15:22:15;7.75;;;4.80;;
10517;SDS011;5307;42.548;22.968;2023-04-01T15:25:13;6.68;;;2.30;;
10517;SDS011;5307;42.548;22.968;2023-04-01T15:27:57;5.25;;;2.17;;
10517;SDS011;5307;42.548;22.968;2023-04-01T15:30:30;5.32;;;2.30;;
10517;SDS011;5307;42.548;22.968;2023-04-01T15:33:03;6.00;;;1.95;;
10517;SDS011;5307;42.548;22.968;2023-04-01T15:35:56;6.75;;;2.33;;
10517;SDS011;5307;42.548;22.968;2023-04-01T15:38:32;5.40;;;2.50;;
10517;SDS011;5307;42.548;22.968;2023-04-01T15:41:10;4.00;;;2.28;;
10517;SDS011;5307;42.548;22.968;2023-04-01T15:43:41;4.28;;;2.30;;
10517;SDS011;5307;42.548;22.968;2023-04-01T15:49:16;8.10;;;2.80;;
10517;SDS011;5307;42.548;22.968;2023-04-01T15:51:58;2.50;;;1.35;;
10517;SDS011;5307;42.548;22.968;2023-04-01T15:57:35;3.33;;;1.90;;
10517;SDS011;5307;42.548;22.968;2023-04-01T16:00:19;1.00;;;1.00;;
10517;SDS011;5307;42.548;22.968;2023-04-01T16:02:52;2.55;;;1.20;;
10517;SDS011;5307;42.548;22.968;2023-04-01T16:05:37;2.28;;;1.35;;
10517;SDS011;5307;42.548;22.968;2023-04-01T16:08:26;1.10;;;1.00;;
10517;SDS011;5307;42.548;22.968;2023-04-01T16:11:18;1.52;;;1.23;;
10517;SDS011;5307;42.548;22.968;2023-04-01T16:14:02;3.40;;;2.13;;
10517;SDS011;5307;42.548;22.968;2023-04-01T16:16:42;1.42;;;1.13;;
10517;SDS011;5307;42.548;22.968;2023-04-01T16:19:26;1.70;;;1.40;;
10517;SDS011;5307;42.548;22.968;2023-04-01T16:22:03;2.33;;;1.40;;
10517;SDS011;5307;42.548;22.968;2023-04-01T16:24:35;1.70;;;1.50;;
10517;SDS011;5307;42.548;22.968;2023-04-01T16:27:08;3.05;;;1.80;;
10517;SDS011;5307;42.548;22.968;2023-04-01T16:29:43;4.40;;;1.83;;
10517;SDS011;5307;42.548;22.968;2023-04-01T16:32:22;3.00;;;1.50;;
10517;SDS011;5307;42.548;22.968;2023-04-01T16:38:04;3.05;;;1.70;;
10517;SDS011;5307;42.548;22.968;2023-04-01T16:40:41;1.98;;;1.48;;
10517;SDS011;5307;42.548;22.968;2023-04-01T16:43:12;3.30;;;1.98;;
10517;SDS011;5307;42.548;22.968;2023-04-01T16:45:54;2.05;;;1.50;;
10517;SDS011;5307;42.548;22.968;2023-04-01T16:48:45;4.55;;;2.50;;
10517;SDS011;5307;42.548;22.968;2023-04-01T16:51:24;2.25;;;1.77;;
10517;SDS011;5307;42.548;22.968;2023-04-01T16:53:52;3.60;;;1.90;;
10517;SDS011;5307;42.548;22.968;2023-04-01T16:56:36;5.00;;;3.05;;
10517;SDS011;5307;42.548;22.968;2023-04-01T16:59:07;2.20;;;1.90;;
10517;SDS011;5307;42.548;22.968;2023-04-01T17:01:44;3.10;;;1.70;;
10517;SDS011;5307;42.548;22.968;2023-04-01T17:04:18;1.95;;;1.40;;
10517;SDS011;5307;42.548;22.968;2023-04-01T17:06:52;1.77;;;1.48;;
10517;SDS011;5307;42.548;22.968;2023-04-01T17:09:30;2.08;;;1.67;;
10517;SDS011;5307;42.548;22.968;2023-04-01T17:12:10;2.55;;;1.42;;